Time,TemperatureF,DewpointF,PressureIn,WindDirection,WindDirectionDegrees,WindSpeedMPH,WindSpeedGustMPH,Humidity,HourlyPrecipIn,Conditions,Clouds,dailyrainin,SoftwareType,DateUTC
2013-04-18 00:00:00,51.2,42.5,30.08,South,169,0.0,0.0,72,0.00,,,0.00,LWC V2.11 B50,2013-04-18 04:00:00,
2013-04-18 00:01:00,51.1,42.4,30.09,South,169,0.0,0.0,72,0.00,,,0.00,LWC V2.11 B50,2013-04-18 04:01:00,
2013-04-18 00:02:00,51.0,42.3,30.09,South,169,0.0,0.0,72,0.00,,,0.00,LWC V2.11 B50,2013-04-18 04:02:00,
2013-04-18 00:05:00,50.8,42.1,30.09,South,169,0.0,0.0,72,0.00,,,0.00,LWC V2.11 B50,2013-04-18 04:05:00,
2013-04-18 00:08:00,50.7,42.4,30.09,South,169,0.0,0.0,73,0.00,,,0.00,LWC V2.11 B50,2013-04-18 04:08:00,
2013-04-18 00:09:00,50.6,42.3,30.09,SSE,162,0.0,0.0,73,0.00,,,0.00,LWC V2.11 B50,2013-04-18 04:09:00,
2013-04-18 00:14:00,50.5,42.2,30.08,ESE,121,0.0,2.0,73,0.00,,,0.00,LWC V2.11 B50,2013-04-18 04:14:00,
2013-04-18 00:19:00,49.9,43.0,30.08,SE,145,0.0,0.0,77,0.00,,,0.00,LWC V2.11 B50,2013-04-18 04:19:00,
2013-04-18 00:24:00,49.5,41.9,30.08,SE,145,0.0,0.0,75,0.00,,,0.00,LWC V2.11 B50,2013-04-18 04:24:00,
2013-04-18 00:29:00,50.3,41.6,30.08,SE,145,0.0,0.0,72,0.00,,,0.00,LWC V2.11 B50,2013-04-18 04:29:00,
2013-04-18 00:34:00,50.7,41.3,30.08,SE,145,0.0,1.0,70,0.00,,,0.00,LWC V2.11 B50,2013-04-18 04:34:00,
2013-04-18 00:39:00,50.8,41.4,30.08,SSE,149,0.0,0.0,70,0.00,,,0.00,LWC V2.11 B50,2013-04-18 04:39:00,
2013-04-18 00:44:00,50.8,41.7,30.08,SSE,149,0.0,0.0,71,0.00,,,0.00,LWC V2.11 B50,2013-04-18 04:44:00,
2013-04-18 00:49:00,50.7,41.6,30.07,SE,135,0.0,1.0,71,0.00,,,0.00,LWC V2.11 B50,2013-04-18 04:49:00,
2013-04-18 00:54:00,51.1,42.4,30.08,SSW,204,0.0,1.0,72,0.00,,,0.00,LWC V2.11 B50,2013-04-18 04:54:00,
2013-04-18 00:59:00,51.6,41.8,30.07,SSW,204,0.0,0.0,69,0.00,,,0.00,LWC V2.11 B50,2013-04-18 04:59:00,
2013-04-18 01:04:00,52.2,42.7,30.07,SSW,195,0.0,0.0,70,0.00,,,0.00,LWC V2.11 B50,2013-04-18 05:04:00,
2013-04-18 01:09:00,52.6,44.2,30.07,SSE,156,1.0,1.0,73,0.00,,,0.00,LWC V2.11 B50,2013-04-18 05:09:00,
2013-04-18 01:14:00,52.7,44.6,30.07,SSE,148,1.0,2.0,74,0.00,,,0.00,LWC V2.11 B50,2013-04-18 05:14:00,
2013-04-18 01:19:00,53.1,45.7,30.06,SSE,149,2.0,3.0,76,0.00,,,0.00,LWC V2.11 B50,2013-04-18 05:19:00,
2013-04-18 01:24:00,54.3,46.5,30.06,SE,131,2.0,4.0,75,0.00,,,0.00,LWC V2.11 B50,2013-04-18 05:24:00,
2013-04-18 01:29:00,55.4,46.5,30.06,SE,129,3.0,3.0,72,0.00,,,0.00,LWC V2.11 B50,2013-04-18 05:29:00,
2013-04-18 01:34:00,56.1,46.8,30.05,SE,138,3.0,4.0,71,0.00,,,0.00,LWC V2.11 B50,2013-04-18 05:34:00,
2013-04-18 01:39:00,56.4,47.1,30.05,SSE,160,3.0,4.0,71,0.00,,,0.00,LWC V2.11 B50,2013-04-18 05:39:00,
2013-04-18 01:44:00,57.1,48.9,30.05,SE,133,3.0,5.0,74,0.00,,,0.00,LWC V2.11 B50,2013-04-18 05:44:00,
2013-04-18 01:49:00,57.6,49.0,30.05,ESE,119,2.0,4.0,73,0.00,,,0.00,LWC V2.11 B50,2013-04-18 05:49:00,
2013-04-18 01:54:00,58.4,49.8,30.05,SE,126,3.0,3.0,73,0.00,,,0.00,LWC V2.11 B50,2013-04-18 05:54:00,
2013-04-18 01:59:00,58.5,49.5,30.04,SE,131,4.0,5.0,72,0.00,,,0.00,LWC V2.11 B50,2013-04-18 05:59:00,
2013-04-18 02:04:00,58.4,49.4,30.04,ESE,118,2.0,5.0,72,0.00,,,0.00,LWC V2.11 B50,2013-04-18 06:04:00,
2013-04-18 02:09:00,58.4,49.0,30.03,SE,127,3.0,4.0,71,0.00,,,0.00,LWC V2.11 B50,2013-04-18 06:09:00,
2013-04-18 02:14:00,58.3,49.3,30.03,ESE,108,3.0,5.0,72,0.00,,,0.00,LWC V2.11 B50,2013-04-18 06:14:00,
2013-04-18 02:19:00,58.0,49.0,30.03,ESE,119,4.0,7.0,72,0.00,,,0.00,LWC V2.11 B50,2013-04-18 06:19:00,
2013-04-18 02:24:00,58.1,49.9,30.02,SE,135,2.0,4.0,74,0.00,,,0.00,LWC V2.11 B50,2013-04-18 06:24:00,
2013-04-18 02:29:00,58.6,51.4,30.02,SSE,160,8.0,8.0,77,0.00,,,0.00,LWC V2.11 B50,2013-04-18 06:29:00,
2013-04-18 02:34:00,59.5,52.3,30.01,SSE,156,6.0,11.0,77,0.00,,,0.00,LWC V2.11 B50,2013-04-18 06:34:00,
2013-04-18 02:39:00,60.3,52.7,30.00,SSE,159,6.0,7.0,76,0.00,,,0.00,LWC V2.11 B50,2013-04-18 06:39:00,
2013-04-18 02:44:00,60.8,52.8,30.00,SSE,155,6.0,8.0,75,0.00,,,0.00,LWC V2.11 B50,2013-04-18 06:44:00,
2013-04-18 02:49:00,60.9,52.9,30.00,SSE,150,7.0,10.0,75,0.00,,,0.00,LWC V2.11 B50,2013-04-18 06:49:00,
2013-04-18 02:54:00,61.1,53.1,29.99,SSE,148,7.0,9.0,75,0.00,,,0.00,LWC V2.11 B50,2013-04-18 06:54:00,
2013-04-18 02:59:00,61.1,53.1,29.99,SSE,153,9.0,10.0,75,0.00,,,0.00,LWC V2.11 B50,2013-04-18 06:59:00,
2013-04-18 03:04:00,61.1,53.1,29.99,ESE,115,6.0,9.0,75,0.00,,,0.00,LWC V2.11 B50,2013-04-18 07:04:00,
2013-04-18 03:09:00,61.0,53.0,29.99,SE,124,7.0,10.0,75,0.00,,,0.00,LWC V2.11 B50,2013-04-18 07:09:00,
2013-04-18 03:14:00,60.9,52.9,29.98,SSE,155,9.0,10.0,75,0.00,,,0.00,LWC V2.11 B50,2013-04-18 07:14:00,
2013-04-18 03:19:00,60.9,52.9,29.98,ESE,120,5.0,9.0,75,0.00,,,0.00,LWC V2.11 B50,2013-04-18 07:19:00,
2013-04-18 03:24:00,61.0,53.4,29.98,SSE,156,7.0,10.0,76,0.00,,,0.00,LWC V2.11 B50,2013-04-18 07:24:00,
2013-04-18 03:29:00,61.0,53.4,29.98,SSE,166,6.0,11.0,76,0.00,,,0.00,LWC V2.11 B50,2013-04-18 07:29:00,
2013-04-18 03:34:00,60.9,53.3,29.98,SSE,152,3.0,9.0,76,0.00,,,0.00,LWC V2.11 B50,2013-04-18 07:34:00,
2013-04-18 03:39:00,60.8,53.2,29.98,SSE,149,7.0,9.0,76,0.00,,,0.00,LWC V2.11 B50,2013-04-18 07:39:00,
2013-04-18 03:44:00,60.7,53.4,29.98,SE,126,5.0,7.0,77,0.00,,,0.00,LWC V2.11 B50,2013-04-18 07:44:00,
2013-04-18 03:49:00,60.7,53.4,29.97,South,178,4.0,11.0,77,0.00,,,0.00,LWC V2.11 B50,2013-04-18 07:49:00,
2013-04-18 03:54:00,60.6,53.3,29.97,SE,143,4.0,8.0,77,0.00,,,0.00,LWC V2.11 B50,2013-04-18 07:54:00,
2013-04-18 03:59:00,60.7,53.4,29.97,SSE,162,10.0,14.0,77,0.00,,,0.00,LWC V2.11 B50,2013-04-18 07:59:00,
2013-04-18 04:04:00,60.7,53.8,29.97,SSE,159,6.0,9.0,78,0.00,,,0.00,LWC V2.11 B50,2013-04-18 08:04:00,
2013-04-18 04:09:00,60.7,53.8,29.97,SSE,148,5.0,7.0,78,0.00,,,0.00,LWC V2.11 B50,2013-04-18 08:09:00,
2013-04-18 04:14:00,60.6,53.7,29.97,SSE,163,13.0,13.0,78,0.00,,,0.00,LWC V2.11 B50,2013-04-18 08:14:00,
2013-04-18 04:19:00,60.8,53.9,29.97,SSE,150,7.0,11.0,78,0.00,,,0.00,LWC V2.11 B50,2013-04-18 08:19:00,
2013-04-18 04:24:00,60.8,53.9,29.97,SSE,149,5.0,9.0,78,0.00,,,0.00,LWC V2.11 B50,2013-04-18 08:24:00,
2013-04-18 04:29:00,60.9,54.0,29.97,SSE,150,7.0,14.0,78,0.00,,,0.00,LWC V2.11 B50,2013-04-18 08:29:00,
2013-04-18 04:34:00,60.9,54.0,29.97,South,169,10.0,11.0,78,0.00,,,0.00,LWC V2.11 B50,2013-04-18 08:34:00,
2013-04-18 04:39:00,60.8,53.9,29.97,SSE,150,9.0,11.0,78,0.00,,,0.00,LWC V2.11 B50,2013-04-18 08:39:00,
2013-04-18 04:44:00,60.9,54.0,29.97,SSE,149,7.0,12.0,78,0.00,,,0.00,LWC V2.11 B50,2013-04-18 08:44:00,
2013-04-18 04:49:00,60.9,54.0,29.97,SSE,166,4.0,11.0,78,0.00,,,0.00,LWC V2.11 B50,2013-04-18 08:49:00,
2013-04-18 04:54:00,60.8,53.9,29.97,SSE,159,7.0,9.0,78,0.00,,,0.00,LWC V2.11 B50,2013-04-18 08:54:00,
2013-04-18 04:59:00,60.8,53.9,29.97,SSE,162,5.0,7.0,78,0.00,,,0.00,LWC V2.11 B50,2013-04-18 08:59:00,
2013-04-18 05:04:00,60.9,54.0,29.97,SW,224,6.0,10.0,78,0.00,,,0.00,LWC V2.11 B50,2013-04-18 09:04:00,
2013-04-18 05:09:00,60.7,54.1,29.97,SSE,159,8.0,8.0,79,0.00,,,0.00,LWC V2.11 B50,2013-04-18 09:09:00,
2013-04-18 05:14:00,60.7,54.1,29.96,SSE,166,7.0,14.0,79,0.00,,,0.00,LWC V2.11 B50,2013-04-18 09:14:00,
2013-04-18 05:19:00,60.6,54.0,29.96,SSE,161,9.0,9.0,79,0.00,,,0.00,LWC V2.11 B50,2013-04-18 09:19:00,
2013-04-18 05:24:00,60.5,54.0,29.96,SE,141,7.0,10.0,79,0.00,,,0.00,LWC V2.11 B50,2013-04-18 09:24:00,
2013-04-18 05:29:00,60.4,53.9,29.96,SSE,159,6.0,14.0,79,0.00,,,0.00,LWC V2.11 B50,2013-04-18 09:29:00,
2013-04-18 05:34:00,60.3,54.1,29.96,SSE,162,7.0,12.0,80,0.00,,,0.00,LWC V2.11 B50,2013-04-18 09:34:00,
2013-04-18 05:39:00,60.3,54.1,29.96,South,175,9.0,10.0,80,0.00,,,0.00,LWC V2.11 B50,2013-04-18 09:39:00,
2013-04-18 05:44:00,60.3,54.1,29.96,SSE,165,4.0,9.0,80,0.00,,,0.00,LWC V2.11 B50,2013-04-18 09:44:00,
2013-04-18 05:49:00,60.0,53.8,29.96,SE,145,6.0,10.0,80,0.00,,,0.00,LWC V2.11 B50,2013-04-18 09:49:00,
2013-04-18 05:54:00,60.1,54.2,29.96,South,179,5.0,9.0,81,0.00,,,0.00,LWC V2.11 B50,2013-04-18 09:54:00,
2013-04-18 05:59:00,60.1,54.2,29.96,SSE,158,9.0,10.0,81,0.00,,,0.00,LWC V2.11 B50,2013-04-18 09:59:00,
2013-04-18 06:04:00,60.1,53.9,29.95,SSE,155,7.0,8.0,80,0.00,,,0.00,LWC V2.11 B50,2013-04-18 10:04:00,
2013-04-18 06:09:00,60.1,54.2,29.95,SSE,149,9.0,10.0,81,0.00,,,0.00,LWC V2.11 B50,2013-04-18 10:09:00,
2013-04-18 06:14:00,60.2,54.3,29.95,SSE,165,7.0,16.0,81,0.00,,,0.00,LWC V2.11 B50,2013-04-18 10:14:00,
2013-04-18 06:19:00,60.1,54.2,29.94,South,181,9.0,10.0,81,0.00,,,0.00,LWC V2.11 B50,2013-04-18 10:19:00,
2013-04-18 06:24:00,60.0,54.1,29.94,SSE,159,7.0,8.0,81,0.00,,,0.00,LWC V2.11 B50,2013-04-18 10:24:00,
2013-04-18 06:29:00,60.0,54.1,29.94,SSE,155,8.0,9.0,81,0.00,,,0.00,LWC V2.11 B50,2013-04-18 10:29:00,
2013-04-18 06:34:00,60.1,54.2,29.95,SE,146,9.0,13.0,81,0.00,,,0.00,LWC V2.11 B50,2013-04-18 10:34:00,
2013-04-18 06:39:00,60.1,54.2,29.95,SSE,150,6.0,13.0,81,0.00,,,0.00,LWC V2.11 B50,2013-04-18 10:39:00,
2013-04-18 06:44:00,60.0,54.1,29.95,SSE,152,9.0,11.0,81,0.00,,,0.00,LWC V2.11 B50,2013-04-18 10:44:00,
2013-04-18 06:49:00,60.1,54.2,29.95,SE,144,8.0,11.0,81,0.00,,,0.00,LWC V2.11 B50,2013-04-18 10:49:00,
2013-04-18 06:54:00,60.1,54.2,29.95,SSE,149,14.0,14.0,81,0.00,,,0.00,LWC V2.11 B50,2013-04-18 10:54:00,
2013-04-18 06:59:00,60.2,54.3,29.95,SSE,160,8.0,14.0,81,0.00,,,0.00,LWC V2.11 B50,2013-04-18 10:59:00,
2013-04-18 07:04:00,60.2,54.7,29.95,SSE,162,5.0,12.0,82,0.00,,,0.00,LWC V2.11 B50,2013-04-18 11:04:00,
2013-04-18 07:09:00,60.2,54.7,29.95,SSE,161,7.0,12.0,82,0.00,,,0.00,LWC V2.11 B50,2013-04-18 11:09:00,
2013-04-18 07:14:00,60.4,54.9,29.95,SSE,156,8.0,13.0,82,0.00,,,0.00,LWC V2.11 B50,2013-04-18 11:14:00,
2013-04-18 07:19:00,60.6,55.1,29.95,South,179,6.0,14.0,82,0.00,,,0.00,LWC V2.11 B50,2013-04-18 11:19:00,
2013-04-18 07:24:00,60.7,54.8,29.95,SE,133,12.0,12.0,81,0.00,,,0.00,LWC V2.11 B50,2013-04-18 11:24:00,
2013-04-18 07:29:00,60.8,54.9,29.95,South,176,9.0,12.0,81,0.00,,,0.00,LWC V2.11 B50,2013-04-18 11:29:00,
2013-04-18 07:34:00,61.0,55.1,29.95,SSE,167,9.0,13.0,81,0.00,,,0.00,LWC V2.11 B50,2013-04-18 11:34:00,
2013-04-18 07:39:00,61.2,55.3,29.96,SSE,151,7.0,18.0,81,0.00,,,0.00,LWC V2.11 B50,2013-04-18 11:39:00,
2013-04-18 07:44:00,61.3,55.4,29.96,SE,144,7.0,12.0,81,0.00,,,0.00,LWC V2.11 B50,2013-04-18 11:44:00,
2013-04-18 07:49:00,61.4,55.5,29.96,SE,143,10.0,11.0,81,0.00,,,0.00,LWC V2.11 B50,2013-04-18 11:49:00,
2013-04-18 07:54:00,61.5,55.6,29.96,SE,144,9.0,11.0,81,0.00,,,0.00,LWC V2.11 B50,2013-04-18 11:54:00,
2013-04-18 07:59:00,61.8,55.9,29.96,SE,145,6.0,13.0,81,0.00,,,0.00,LWC V2.11 B50,2013-04-18 11:59:00,
2013-04-18 08:04:00,62.0,55.8,29.96,SSW,198,8.0,14.0,80,0.00,,,0.00,LWC V2.11 B50,2013-04-18 12:04:00,
2013-04-18 08:09:00,62.1,55.9,29.96,South,184,4.0,14.0,80,0.00,,,0.00,LWC V2.11 B50,2013-04-18 12:09:00,
2013-04-18 08:14:00,62.5,56.2,29.96,SSE,163,10.0,10.0,80,0.00,,,0.00,LWC V2.11 B50,2013-04-18 12:14:00,
2013-04-18 08:19:00,63.0,56.4,29.96,SSE,159,7.0,12.0,79,0.00,,,0.00,LWC V2.11 B50,2013-04-18 12:19:00,
2013-04-18 08:24:00,63.5,56.5,29.96,SSE,165,8.0,13.0,78,0.00,,,0.00,LWC V2.11 B50,2013-04-18 12:24:00,
2013-04-18 08:29:00,63.7,56.7,29.96,SSE,149,5.0,7.0,78,0.00,,,0.00,LWC V2.11 B50,2013-04-18 12:29:00,
2013-04-18 08:34:00,63.9,56.9,29.96,South,183,7.0,14.0,78,0.00,,,0.00,LWC V2.11 B50,2013-04-18 12:34:00,
2013-04-18 08:39:00,64.0,57.0,29.95,SSW,197,9.0,18.0,78,0.00,,,0.00,LWC V2.11 B50,2013-04-18 12:39:00,
2013-04-18 08:44:00,64.7,57.3,29.95,SSE,165,6.0,15.0,77,0.00,,,0.00,LWC V2.11 B50,2013-04-18 12:44:00,
2013-04-18 08:49:00,65.3,57.5,29.95,SSE,162,6.0,12.0,76,0.00,,,0.00,LWC V2.11 B50,2013-04-18 12:49:00,
2013-04-18 08:54:00,65.7,57.6,29.95,SE,146,6.0,14.0,75,0.00,,,0.00,LWC V2.11 B50,2013-04-18 12:54:00,
2013-04-18 08:59:00,66.1,57.9,29.94,South,169,5.0,10.0,75,0.00,,,0.00,LWC V2.11 B50,2013-04-18 12:59:00,
2013-04-18 09:04:00,66.6,58.4,29.94,SSW,204,5.0,13.0,75,0.00,,,0.00,LWC V2.11 B50,2013-04-18 13:04:00,
2013-04-18 09:09:00,66.7,58.1,29.94,SE,144,9.0,12.0,74,0.00,,,0.00,LWC V2.11 B50,2013-04-18 13:09:00,
2013-04-18 09:14:00,66.7,57.8,29.94,SSE,148,9.0,16.0,73,0.00,,,0.00,LWC V2.11 B50,2013-04-18 13:14:00,
2013-04-18 09:19:00,66.7,57.8,29.93,SE,144,6.0,17.0,73,0.00,,,0.00,LWC V2.11 B50,2013-04-18 13:19:00,
2013-04-18 09:24:00,66.8,57.9,29.93,SSE,160,11.0,15.0,73,0.00,,,0.00,LWC V2.11 B50,2013-04-18 13:24:00,
2013-04-18 09:29:00,66.9,58.3,29.93,SSE,166,7.0,10.0,74,0.00,,,0.00,LWC V2.11 B50,2013-04-18 13:29:00,
2013-04-18 09:34:00,67.0,58.0,29.93,SSE,156,13.0,14.0,73,0.00,,,0.00,LWC V2.11 B50,2013-04-18 13:34:00,
2013-04-18 09:39:00,67.4,58.4,29.93,South,169,9.0,14.0,73,0.00,,,0.00,LWC V2.11 B50,2013-04-18 13:39:00,
2013-04-18 09:44:00,67.7,58.3,29.92,South,186,8.0,14.0,72,0.00,,,0.00,LWC V2.11 B50,2013-04-18 13:44:00,
2013-04-18 09:49:00,67.8,58.4,29.92,SSE,165,8.0,15.0,72,0.00,,,0.00,LWC V2.11 B50,2013-04-18 13:49:00,
2013-04-18 09:54:00,68.3,58.5,29.92,SW,221,14.0,18.0,71,0.00,,,0.00,LWC V2.11 B50,2013-04-18 13:54:00,
2013-04-18 09:59:00,69.1,58.9,29.92,SSE,159,9.0,18.0,70,0.00,,,0.00,LWC V2.11 B50,2013-04-18 13:59:00,
2013-04-18 10:04:00,70.0,59.8,29.91,South,174,10.0,10.0,70,0.00,,,0.00,LWC V2.11 B50,2013-04-18 14:04:00,
2013-04-18 10:09:00,70.8,59.7,29.91,SE,143,10.0,15.0,68,0.00,,,0.00,LWC V2.11 B50,2013-04-18 14:09:00,
2013-04-18 10:14:00,71.5,59.5,29.91,SSE,167,11.0,15.0,66,0.00,,,0.00,LWC V2.11 B50,2013-04-18 14:14:00,
2013-04-18 10:19:00,72.0,59.1,29.91,SSE,160,5.0,19.0,64,0.00,,,0.00,LWC V2.11 B50,2013-04-18 14:19:00,
2013-04-18 10:24:00,72.2,58.9,29.91,SW,234,9.0,16.0,63,0.00,,,0.00,LWC V2.11 B50,2013-04-18 14:24:00,
2013-04-18 10:29:00,72.4,59.1,29.90,SSW,192,9.0,13.0,63,0.00,,,0.00,LWC V2.11 B50,2013-04-18 14:29:00,
2013-04-18 10:34:00,72.5,59.2,29.90,SSW,199,13.0,16.0,63,0.00,,,0.00,LWC V2.11 B50,2013-04-18 14:34:00,
2013-04-18 10:39:00,72.6,59.3,29.90,SSW,212,5.0,15.0,63,0.00,,,0.00,LWC V2.11 B50,2013-04-18 14:39:00,
2013-04-18 10:44:00,72.6,58.8,29.90,SSW,206,8.0,20.0,62,0.00,,,0.00,LWC V2.11 B50,2013-04-18 14:44:00,
2013-04-18 10:49:00,72.5,58.7,29.89,SSW,212,6.0,19.0,62,0.00,,,0.00,LWC V2.11 B50,2013-04-18 14:49:00,
2013-04-18 10:54:00,72.9,59.1,29.89,SE,144,9.0,14.0,62,0.00,,,0.00,LWC V2.11 B50,2013-04-18 14:54:00,
2013-04-18 10:59:00,73.3,59.9,29.89,SSE,162,6.0,14.0,63,0.00,,,0.00,LWC V2.11 B50,2013-04-18 14:59:00,
2013-04-18 11:04:00,73.4,58.7,29.89,SSE,150,13.0,16.0,60,0.00,,,0.00,LWC V2.11 B50,2013-04-18 15:04:00,
2013-04-18 11:09:00,73.6,59.3,29.89,South,170,9.0,15.0,61,0.00,,,0.00,LWC V2.11 B50,2013-04-18 15:09:00,
2013-04-18 11:14:00,74.0,59.7,29.88,South,183,8.0,14.0,61,0.00,,,0.00,LWC V2.11 B50,2013-04-18 15:14:00,
2013-04-18 11:19:00,74.5,60.2,29.88,SSE,159,14.0,19.0,61,0.00,,,0.00,LWC V2.11 B50,2013-04-18 15:19:00,
2013-04-18 11:24:00,74.4,59.6,29.88,South,174,8.0,16.0,60,0.00,,,0.00,LWC V2.11 B50,2013-04-18 15:24:00,
2013-04-18 11:29:00,74.5,59.2,29.87,WNW,283,8.0,12.0,59,0.00,,,0.00,LWC V2.11 B50,2013-04-18 15:29:00,
2013-04-18 11:34:00,75.1,59.8,29.87,South,176,12.0,13.0,59,0.00,,,0.00,LWC V2.11 B50,2013-04-18 15:34:00,
2013-04-18 11:39:00,75.1,58.8,29.88,WSW,241,5.0,21.0,57,0.00,,,0.00,LWC V2.11 B50,2013-04-18 15:39:00,
2013-04-18 11:44:00,75.1,59.3,29.87,SSW,197,18.0,18.0,58,0.00,,,0.00,LWC V2.11 B50,2013-04-18 15:44:00,
2013-04-18 11:49:00,75.2,59.9,29.87,SE,131,5.0,12.0,59,0.00,,,0.00,LWC V2.11 B50,2013-04-18 15:49:00,
2013-04-18 11:54:00,75.4,60.1,29.87,WNW,288,5.0,16.0,59,0.00,,,0.00,LWC V2.11 B50,2013-04-18 15:54:00,
2013-04-18 11:59:00,75.9,60.0,29.87,SW,215,7.0,17.0,58,0.00,,,0.00,LWC V2.11 B50,2013-04-18 15:59:00,
2013-04-18 12:04:00,76.5,60.6,29.87,SSW,197,5.0,10.0,58,0.00,,,0.00,LWC V2.11 B50,2013-04-18 16:04:00,
2013-04-18 12:09:00,76.7,59.8,29.86,SW,215,13.0,24.0,56,0.00,,,0.00,LWC V2.11 B50,2013-04-18 16:09:00,
2013-04-18 12:14:00,77.1,60.7,29.86,SSW,197,9.0,11.0,57,0.00,,,0.00,LWC V2.11 B50,2013-04-18 16:14:00,
2013-04-18 12:19:00,77.2,61.3,29.86,South,170,10.0,12.0,58,0.00,,,0.00,LWC V2.11 B50,2013-04-18 16:19:00,
2013-04-18 12:37:00,77.9,60.9,29.85,SSW,210,4.0,10.0,56,0.00,,,0.00,WeatherCatV1.02B3,2013-04-18 16:37:00,
2013-04-18 12:42:00,77.9,60.9,29.85,South,181,11.0,22.0,56,0.00,,,0.00,WeatherCatV1.02B3,2013-04-18 16:42:00,
2013-04-18 12:51:00,78.0,62.0,29.83,South,174,11.0,13.0,58,0.00,,,0.00,WeatherCatV1.02B3,2013-04-18 16:51:00,
2013-04-18 12:57:00,78.3,61.8,29.83,SSE,156,8.0,17.0,57,0.00,,,0.00,WeatherCatV1.02B3,2013-04-18 16:57:00,
2013-04-18 13:02:00,78.4,61.4,29.83,SW,235,5.0,16.0,56,0.00,,,0.00,WeatherCatV1.02B3,2013-04-18 17:02:00,
2013-04-18 13:07:00,78.8,62.3,29.82,SSE,153,14.0,14.0,57,0.00,,,0.00,WeatherCatV1.02B3,2013-04-18 17:07:00,
2013-04-18 13:12:00,78.8,61.8,29.81,SSE,162,7.0,21.0,56,0.00,,,0.00,WeatherCatV1.02B3,2013-04-18 17:12:00,
2013-04-18 13:17:00,79.0,62.4,29.81,SSE,160,5.0,11.0,57,0.00,,,0.00,WeatherCatV1.02B3,2013-04-18 17:17:00,
2013-04-18 13:22:00,79.3,61.7,29.81,SSE,158,13.0,17.0,55,0.00,,,0.00,WeatherCatV1.02B3,2013-04-18 17:22:00,
2013-04-18 13:27:00,79.1,61.5,29.81,WSW,248,5.0,16.0,55,0.00,,,0.00,WeatherCatV1.15B25,2013-04-18 17:27:00,
2013-04-18 13:32:00,79.5,62.4,29.81,SSE,152,4.0,10.0,56,0.00,,,0.00,WeatherCatV1.15B25,2013-04-18 17:32:00,
2013-04-18 13:37:00,79.4,61.3,29.81,SW,224,13.0,19.0,54,0.00,,,0.00,WeatherCatV1.15B25,2013-04-18 17:37:00,
2013-04-18 13:42:00,79.3,62.2,29.80,SSW,205,7.0,12.0,56,0.00,,,0.00,WeatherCatV1.15B25,2013-04-18 17:42:00,
2013-04-18 13:47:00,79.5,61.9,29.80,WSW,242,9.0,15.0,55,0.00,,,0.00,WeatherCatV1.15B25,2013-04-18 17:47:00,
2013-04-18 13:52:00,79.5,61.4,29.80,SW,219,9.0,15.0,54,0.00,,,0.00,WeatherCatV1.15B25,2013-04-18 17:52:00,
2013-04-18 13:57:00,79.8,61.7,29.80,SSW,193,6.0,19.0,54,0.00,,,0.00,WeatherCatV1.15B25,2013-04-18 17:57:00,
2013-04-18 14:02:00,80.0,61.8,29.80,SE,140,9.0,14.0,54,0.00,,,0.00,WeatherCatV1.15B25,2013-04-18 18:02:00,
2013-04-18 14:07:00,80.5,61.2,29.79,South,190,17.0,20.0,52,0.00,,,0.00,WeatherCatV1.15B25,2013-04-18 18:07:00,
2013-04-18 14:12:00,80.5,61.2,29.79,SSW,193,7.0,16.0,52,0.00,,,0.00,WeatherCatV1.15B25,2013-04-18 18:12:00,
2013-04-18 14:17:00,81.2,62.4,29.79,South,175,7.0,9.0,53,0.00,,,0.00,WeatherCatV1.15B25,2013-04-18 18:17:00,
2013-04-18 14:22:00,81.8,61.9,29.79,SW,221,12.0,12.0,51,0.00,,,0.00,WeatherCatV1.15B25,2013-04-18 18:22:00,
2013-04-18 14:27:00,81.2,61.9,29.78,SE,139,8.0,18.0,52,0.00,,,0.00,WeatherCatV1.15B25,2013-04-18 18:27:00,
2013-04-18 14:32:00,81.3,62.5,29.78,SSE,161,3.0,12.0,53,0.00,,,0.00,WeatherCatV1.15B25,2013-04-18 18:32:00,
2013-04-18 14:37:00,82.0,62.1,29.78,SSW,203,13.0,21.0,51,0.00,,,0.00,WeatherCatV1.15B25,2013-04-18 18:37:00,
2013-04-18 14:42:00,81.0,60.6,29.78,SW,236,4.0,19.0,50,0.00,,,0.00,WeatherCatV1.15B25,2013-04-18 18:42:00,
2013-04-18 14:47:00,80.4,61.1,29.79,SSE,162,9.0,16.0,52,0.00,,,0.00,WeatherCatV1.15B25,2013-04-18 18:47:00,
2013-04-18 14:52:00,80.2,61.5,29.78,SW,219,4.0,10.0,53,0.00,,,0.00,WeatherCatV1.15B25,2013-04-18 18:52:00,
2013-04-18 14:57:00,80.8,62.6,29.77,South,172,7.0,8.0,54,0.00,,,0.00,WeatherCatV1.15B25,2013-04-18 18:57:00,
2013-04-18 15:02:00,81.4,62.6,29.77,SSW,204,4.0,12.0,53,0.00,,,0.00,WeatherCatV1.15B25,2013-04-18 19:02:00,
2013-04-18 15:07:00,81.7,61.2,29.77,SSE,167,7.0,19.0,50,0.00,,,0.00,WeatherCatV1.15B25,2013-04-18 19:07:00,
2013-04-18 15:12:00,81.2,60.8,29.77,WSW,245,11.0,17.0,50,0.00,,,0.00,WeatherCatV1.15B25,2013-04-18 19:12:00,
2013-04-18 15:17:00,81.4,60.9,29.76,SSE,152,4.0,10.0,50,0.00,,,0.00,WeatherCatV1.15B25,2013-04-18 19:17:00,
2013-04-18 15:22:00,81.5,60.5,29.76,SSW,210,10.0,19.0,49,0.00,,,0.00,WeatherCatV1.15B25,2013-04-18 19:22:00,
2013-04-18 15:27:00,81.2,60.8,29.76,SSW,197,12.0,14.0,50,0.00,,,0.00,WeatherCatV1.15B25,2013-04-18 19:27:00,
2013-04-18 15:32:00,80.8,61.0,29.76,South,191,11.0,11.0,51,0.00,,,0.00,WeatherCatV1.15B25,2013-04-18 19:32:00,
2013-04-18 15:37:00,80.9,60.5,29.75,SW,216,10.0,16.0,50,0.00,,,0.00,WeatherCatV1.15B25,2013-04-18 19:37:00,
2013-04-18 15:42:00,81.1,60.7,29.75,SSE,150,7.0,16.0,50,0.00,,,0.00,WeatherCatV1.15B25,2013-04-18 19:42:00,
2013-04-18 15:47:00,81.2,60.8,29.75,SSE,163,6.0,8.0,50,0.00,,,0.00,WeatherCatV1.15B25,2013-04-18 19:47:00,
2013-04-18 15:52:00,81.3,61.4,29.75,SW,227,5.0,8.0,51,0.00,,,0.00,WeatherCatV1.15B25,2013-04-18 19:52:00,
2013-04-18 15:57:00,81.7,61.8,29.74,SSE,158,6.0,19.0,51,0.00,,,0.00,WeatherCatV1.15B25,2013-04-18 19:57:00,
2013-04-18 16:02:00,81.7,61.2,29.74,South,174,12.0,19.0,50,0.00,,,0.00,WeatherCatV1.15B25,2013-04-18 20:02:00,
2013-04-18 16:07:00,81.6,60.6,29.73,SSW,212,13.0,18.0,49,0.00,,,0.00,WeatherCatV1.15B25,2013-04-18 20:07:00,
2013-04-18 16:12:00,81.4,60.9,29.73,SSW,200,7.0,10.0,50,0.00,,,0.00,WeatherCatV1.15B25,2013-04-18 20:12:00,
2013-04-18 16:17:00,81.4,60.4,29.72,SSW,207,11.0,18.0,49,0.00,,,0.00,WeatherCatV1.15B25,2013-04-18 20:17:00,
2013-04-18 16:22:00,81.6,61.1,29.73,SE,142,12.0,12.0,50,0.00,,,0.00,WeatherCatV1.15B25,2013-04-18 20:22:00,
2013-04-18 16:27:00,81.7,60.7,29.73,SW,215,12.0,12.0,49,0.00,,,0.00,WeatherCatV1.15B25,2013-04-18 20:27:00,
2013-04-18 16:32:00,81.6,60.6,29.73,SSW,193,3.0,10.0,49,0.00,,,0.00,WeatherCatV1.15B25,2013-04-18 20:32:00,
2013-04-18 16:37:00,81.6,61.1,29.73,SW,217,4.0,7.0,50,0.00,,,0.00,WeatherCatV1.15B25,2013-04-18 20:37:00,
2013-04-18 16:42:00,81.6,61.1,29.73,South,188,11.0,17.0,50,0.00,,,0.00,WeatherCatV1.15B25,2013-04-18 20:42:00,
2013-04-18 16:47:00,81.1,60.7,29.73,WSW,245,5.0,21.0,50,0.00,,,0.00,WeatherCatV1.15B25,2013-04-18 20:47:00,
2013-04-18 16:52:00,80.9,61.0,29.73,South,188,13.0,16.0,51,0.00,,,0.00,WeatherCatV1.15B25,2013-04-18 20:52:00,
2013-04-18 16:57:00,80.8,61.5,29.73,SE,139,8.0,10.0,52,0.00,,,0.00,WeatherCatV1.15B25,2013-04-18 20:57:00,
2013-04-18 17:02:00,80.6,61.9,29.72,SSE,167,6.0,13.0,53,0.00,,,0.00,WeatherCatV1.15B25,2013-04-18 21:02:00,
2013-04-18 17:07:00,80.7,62.5,29.71,South,176,9.0,9.0,54,0.00,,,0.00,WeatherCatV1.15B25,2013-04-18 21:07:00,
2013-04-18 17:12:00,80.8,62.0,29.71,SSE,167,9.0,12.0,53,0.00,,,0.00,WeatherCatV1.15B25,2013-04-18 21:12:00,
2013-04-18 17:17:00,81.1,61.8,29.71,SSW,197,6.0,10.0,52,0.00,,,0.00,WeatherCatV1.15B25,2013-04-18 21:17:00,
2013-04-18 17:22:00,81.4,62.6,29.71,SSE,155,0.0,4.0,53,0.00,,,0.00,WeatherCatV1.15B25,2013-04-18 21:22:00,
2013-04-18 17:27:00,81.5,62.1,29.72,SSE,148,6.0,10.0,52,0.00,,,0.00,WeatherCatV1.15B25,2013-04-18 21:27:00,
2013-04-18 17:32:00,81.5,62.1,29.71,South,181,9.0,17.0,52,0.00,,,0.00,WeatherCatV1.15B25,2013-04-18 21:32:00,
2013-04-18 17:37:00,81.5,62.1,29.71,South,177,8.0,10.0,52,0.00,,,0.00,WeatherCatV1.15B25,2013-04-18 21:37:00,
2013-04-18 17:42:00,81.6,61.7,29.70,SSE,159,6.0,11.0,51,0.00,,,0.00,WeatherCatV1.15B25,2013-04-18 21:42:00,
2013-04-18 17:47:00,81.5,61.0,29.70,SW,221,7.0,16.0,50,0.00,,,0.00,WeatherCatV1.15B25,2013-04-18 21:47:00,
2013-04-18 17:52:00,81.7,60.7,29.70,SSW,203,7.0,20.0,49,0.00,,,0.00,WeatherCatV1.15B25,2013-04-18 21:52:00,
2013-04-18 17:57:00,81.9,60.3,29.70,WSW,245,6.0,8.0,48,0.00,,,0.00,WeatherCatV1.15B25,2013-04-18 21:57:00,
2013-04-18 18:02:00,81.9,59.7,29.70,SSW,206,6.0,14.0,47,0.00,,,0.00,WeatherCatV1.15B25,2013-04-18 22:02:00,
2013-04-18 18:07:00,81.9,60.3,29.69,SSE,153,5.0,13.0,48,0.00,,,0.00,WeatherCatV1.15B25,2013-04-18 22:07:00,
2013-04-18 18:12:00,81.9,59.7,29.69,South,179,6.0,13.0,47,0.00,,,0.00,WeatherCatV1.15B25,2013-04-18 22:12:00,
2013-04-18 18:17:00,81.7,60.1,29.69,SSW,210,2.0,7.0,48,0.00,,,0.00,WeatherCatV1.15B25,2013-04-18 22:17:00,
2013-04-18 18:22:00,81.7,58.9,29.69,SSE,155,10.0,17.0,46,0.00,,,0.00,WeatherCatV1.15B25,2013-04-18 22:22:00,
2013-04-18 18:27:00,81.8,59.0,29.69,SSE,153,1.0,13.0,46,0.00,,,0.00,WeatherCatV1.15B25,2013-04-18 22:27:00,
2013-04-18 18:32:00,81.8,59.0,29.69,SSE,167,5.0,12.0,46,0.00,,,0.00,WeatherCatV1.15B25,2013-04-18 22:32:00,
2013-04-18 18:37:00,81.6,59.4,29.68,South,188,3.0,5.0,47,0.00,,,0.00,WeatherCatV1.15B25,2013-04-18 22:37:00,
2013-04-18 18:42:00,81.5,59.3,29.68,SSW,199,2.0,6.0,47,0.00,,,0.00,WeatherCatV1.15B25,2013-04-18 22:42:00,
2013-04-18 18:47:00,81.7,58.9,29.68,SSW,201,8.0,11.0,46,0.00,,,0.00,WeatherCatV1.15B25,2013-04-18 22:47:00,
2013-04-18 18:52:00,81.8,58.4,29.68,SW,217,8.0,11.0,45,0.00,,,0.00,WeatherCatV1.15B25,2013-04-18 22:52:00,
2013-04-18 18:57:00,81.9,58.4,29.68,SE,146,4.0,5.0,45,0.00,,,0.00,WeatherCatV1.15B25,2013-04-18 22:57:00,
2013-04-18 19:02:00,81.7,58.3,29.68,East,82,3.0,11.0,45,0.00,,,0.00,WeatherCatV1.15B25,2013-04-18 23:02:00,
2013-04-18 19:07:00,81.5,58.1,29.68,WSW,245,2.0,5.0,45,0.00,,,0.00,WeatherCatV1.15B25,2013-04-18 23:07:00,
2013-04-18 19:12:00,81.3,57.3,29.68,SW,227,6.0,12.0,44,0.00,,,0.00,WeatherCatV1.15B25,2013-04-18 23:12:00,
2013-04-18 19:17:00,81.3,57.3,29.68,South,186,2.0,6.0,44,0.00,,,0.00,WeatherCatV1.15B25,2013-04-18 23:17:00,
2013-04-18 19:22:00,81.2,57.2,29.68,SSE,148,3.0,7.0,44,0.00,,,0.00,WeatherCatV1.15B25,2013-04-18 23:22:00,
2013-04-18 19:27:00,80.9,57.5,29.68,SE,141,8.0,8.0,45,0.00,,,0.00,WeatherCatV1.15B25,2013-04-18 23:27:00,
2013-04-18 19:32:00,80.9,57.5,29.68,SSW,212,9.0,9.0,45,0.00,,,0.00,WeatherCatV1.15B25,2013-04-18 23:32:00,
2013-04-18 19:37:00,80.7,57.4,29.68,SW,219,9.0,9.0,45,0.00,,,0.00,WeatherCatV1.15B25,2013-04-18 23:37:00,
2013-04-18 19:40:00,80.7,57.4,29.68,SSW,194,5.0,10.0,45,0.00,,,0.00,WeatherCatV1.15B25,2013-04-18 23:40:00,
2013-04-18 19:45:00,80.6,57.3,29.68,South,176,4.9,4.9,45,0.00,,,0.00,WeatherCatV1.15B25,2013-04-18 23:45:00,
2013-04-18 19:50:00,80.4,57.3,29.68,South,174,4.7,4.7,45,0.00,,,0.00,WeatherCatV1.15B25,2013-04-18 23:50:00,
2013-04-18 19:55:00,80.2,57.3,29.68,South,172,4.4,4.6,46,0.00,,,0.00,WeatherCatV1.15B25,2013-04-18 23:55:00,
2013-04-18 20:00:00,80.0,57.2,29.67,South,170,4.1,4.9,46,0.00,,,0.00,WeatherCatV1.15B25,2013-04-19 00:00:00,
2013-04-18 20:05:00,79.8,57.2,29.67,SSE,168,3.8,5.2,46,0.00,,,0.00,WeatherCatV1.15B25,2013-04-19 00:05:00,
2013-04-18 20:10:00,79.6,57.2,29.67,SSE,166,3.5,5.5,46,0.00,,,0.00,WeatherCatV1.15B25,2013-04-19 00:10:00,
2013-04-18 20:15:00,79.4,57.2,29.67,SSE,164,3.2,5.8,47,0.00,,,0.00,WeatherCatV1.15B25,2013-04-19 00:15:00,
2013-04-18 20:20:00,79.2,57.2,29.67,SSW,209,4.0,9.0,47,0.00,,,0.00,WeatherCatV1.15B25,2013-04-19 00:20:00,
2013-04-18 20:23:00,79.2,57.8,29.67,SW,226,4.0,7.0,48,0.00,,,0.00,WeatherCatV1.15B25,2013-04-19 00:23:00,
2013-04-18 20:25:00,79.0,57.6,29.67,South,174,4.0,6.0,48,0.00,,,0.00,WeatherCatV1.15B25,2013-04-19 00:25:00,
2013-04-18 20:28:00,78.9,56.9,29.67,SSW,205,2.0,10.0,47,0.00,,,0.00,WeatherCatV1.15B25,2013-04-19 00:28:00,
2013-04-18 20:30:00,78.9,57.5,29.67,South,176,4.0,6.0,48,0.00,,,0.00,WeatherCatV1.15B25,2013-04-19 00:30:00,
2013-04-18 20:33:00,78.8,57.4,29.67,SSE,158,3.0,7.0,48,0.00,,,0.00,WeatherCatV1.15B25,2013-04-19 00:33:00,
2013-04-18 20:35:00,78.5,57.1,29.67,South,169,4.0,4.0,48,0.00,,,0.00,WeatherCatV1.15B25,2013-04-19 00:35:00,
2013-04-18 20:38:00,78.2,57.5,29.67,SSE,150,4.0,6.0,49,0.00,,,0.00,WeatherCatV1.15B25,2013-04-19 00:38:00,
2013-04-18 20:40:00,78.1,57.4,29.67,SSE,166,3.0,4.0,49,0.00,,,0.00,WeatherCatV1.15B25,2013-04-19 00:40:00,
2013-04-18 20:43:00,77.7,57.6,29.67,SE,146,3.0,4.0,50,0.00,,,0.00,WeatherCatV1.15B25,2013-04-19 00:43:00,
2013-04-18 20:45:00,77.6,57.5,29.67,SSE,164,3.0,3.0,50,0.00,,,0.00,WeatherCatV1.15B25,2013-04-19 00:45:00,
2013-04-18 20:48:00,77.4,57.3,29.67,SSE,156,5.0,6.0,50,0.00,,,0.00,WeatherCatV1.15B25,2013-04-19 00:48:00,
2013-04-18 20:50:00,77.3,57.7,29.67,SSE,157,3.0,6.0,51,0.00,,,0.00,WeatherCatV1.15B25,2013-04-19 00:50:00,
2013-04-18 20:53:00,77.0,59.1,29.67,SSE,155,11.0,11.0,54,0.00,,,0.00,WeatherCatV1.15B25,2013-04-19 00:53:00,
2013-04-18 20:55:00,76.8,59.9,29.67,SSE,149,5.0,10.0,56,0.00,,,0.00,WeatherCatV1.15B25,2013-04-19 00:55:00,
2013-04-18 20:58:00,76.5,60.6,29.67,SE,142,8.0,9.0,58,0.00,,,0.00,WeatherCatV1.15B25,2013-04-19 00:58:00,
2013-04-18 21:00:00,76.3,60.9,29.67,SSE,147,7.0,10.0,59,0.00,,,0.00,WeatherCatV1.15B25,2013-04-19 01:00:00,
2013-04-18 21:03:00,75.8,60.9,29.67,South,180,6.0,8.0,60,0.00,,,0.00,WeatherCatV1.15B25,2013-04-19 01:03:00,
2013-04-18 21:05:00,75.7,61.3,29.67,SSE,150,7.0,13.0,61,0.00,,,0.00,WeatherCatV1.15B25,2013-04-19 01:05:00,
2013-04-18 21:08:00,75.5,61.1,29.67,SSE,160,7.0,15.0,61,0.00,,,0.00,WeatherCatV1.15B25,2013-04-19 01:08:00,
2013-04-18 21:10:00,75.4,61.0,29.67,SSE,155,7.0,10.0,61,0.00,,,0.00,WeatherCatV1.15B25,2013-04-19 01:10:00,
2013-04-18 21:13:00,75.2,61.3,29.67,SSE,149,7.0,8.0,62,0.00,,,0.00,WeatherCatV1.15B25,2013-04-19 01:13:00,
2013-04-18 21:15:00,75.1,61.2,29.67,SSE,155,7.0,8.0,62,0.00,,,0.00,WeatherCatV1.15B25,2013-04-19 01:15:00,
2013-04-18 21:18:00,74.9,61.0,29.67,SE,142,5.0,9.0,62,0.00,,,0.00,WeatherCatV1.15B25,2013-04-19 01:18:00,
2013-04-18 21:20:00,74.8,61.3,29.67,SSE,150,6.0,6.0,63,0.00,,,0.00,WeatherCatV1.15B25,2013-04-19 01:20:00,
2013-04-18 21:23:00,74.5,61.1,29.67,SSE,149,4.0,5.0,63,0.00,,,0.00,WeatherCatV1.15B25,2013-04-19 01:23:00,
2013-04-18 21:25:00,74.3,60.9,29.67,SSE,150,5.0,6.0,63,0.00,,,0.00,WeatherCatV1.15B25,2013-04-19 01:25:00,
2013-04-18 21:28:00,74.2,60.8,29.67,SSE,153,3.0,9.0,63,0.00,,,0.00,WeatherCatV1.15B25,2013-04-19 01:28:00,
2013-04-18 21:30:00,74.2,60.8,29.67,SSE,151,5.0,9.0,63,0.00,,,0.00,WeatherCatV1.15B25,2013-04-19 01:30:00,
2013-04-18 21:33:00,74.1,61.1,29.67,SSE,148,4.0,5.0,64,0.00,,,0.00,WeatherCatV1.15B25,2013-04-19 01:33:00,
2013-04-18 21:35:00,74.0,61.0,29.67,SSE,154,5.0,6.0,64,0.00,,,0.00,WeatherCatV1.15B25,2013-04-19 01:35:00,
2013-04-18 21:38:00,74.0,61.0,29.67,SSE,155,3.0,6.0,64,0.00,,,0.00,WeatherCatV1.15B25,2013-04-19 01:38:00,
2013-04-18 21:40:00,73.9,60.9,29.67,SSE,154,4.0,6.0,64,0.00,,,0.00,WeatherCatV1.15B25,2013-04-19 01:40:00,
2013-04-18 21:43:00,73.8,60.8,29.67,SSE,149,3.0,6.0,64,0.00,,,0.00,WeatherCatV1.15B25,2013-04-19 01:43:00,
2013-04-18 21:45:00,73.8,60.8,29.67,SSE,151,5.0,6.0,64,0.00,,,0.00,WeatherCatV1.15B25,2013-04-19 01:45:00,
2013-04-18 21:48:00,73.6,60.7,29.67,SSE,151,5.0,6.0,64,0.00,,,0.00,WeatherCatV1.15B25,2013-04-19 01:48:00,
2013-04-18 21:50:00,73.5,60.6,29.67,SSE,150,4.0,6.0,64,0.00,,,0.00,WeatherCatV1.15B25,2013-04-19 01:50:00,
2013-04-18 21:53:00,73.5,60.6,29.67,SE,139,4.0,7.0,64,0.00,,,0.00,WeatherCatV1.15B25,2013-04-19 01:53:00,
2013-04-18 21:55:00,73.5,60.6,29.67,SE,146,4.0,7.0,64,0.00,,,0.00,WeatherCatV1.15B25,2013-04-19 01:55:00,
2013-04-18 21:58:00,73.4,60.5,29.67,SE,146,4.0,6.0,64,0.00,,,0.00,WeatherCatV1.15B25,2013-04-19 01:58:00,
2013-04-18 22:00:00,73.5,60.6,29.67,SE,146,4.0,7.0,64,0.00,,,0.00,WeatherCatV1.15B25,2013-04-19 02:00:00,
2013-04-18 22:03:00,73.4,60.5,29.67,SE,146,3.0,5.0,64,0.00,,,0.00,WeatherCatV1.15B25,2013-04-19 02:03:00,
2013-04-18 22:05:00,73.4,60.5,29.67,SSE,152,4.0,6.0,64,0.00,,,0.00,WeatherCatV1.15B25,2013-04-19 02:05:00,
2013-04-18 22:08:00,73.4,60.5,29.67,South,175,4.0,4.0,64,0.00,,,0.00,WeatherCatV1.15B25,2013-04-19 02:08:00,
2013-04-18 22:10:00,73.5,60.1,29.67,SSE,156,4.0,7.0,63,0.00,,,0.00,WeatherCatV1.15B25,2013-04-19 02:10:00,
2013-04-18 22:13:00,73.4,60.0,29.67,SSE,150,5.0,5.0,63,0.00,,,0.00,WeatherCatV1.15B25,2013-04-19 02:13:00,
2013-04-18 22:15:00,73.5,60.1,29.67,SSE,153,4.0,5.0,63,0.00,,,0.00,WeatherCatV1.15B25,2013-04-19 02:15:00,
2013-04-18 22:18:00,73.6,59.8,29.67,SSW,205,5.0,7.0,62,0.00,,,0.00,WeatherCatV1.15B25,2013-04-19 02:18:00,
2013-04-18 22:20:00,73.6,59.8,29.67,SSE,161,4.0,7.0,62,0.00,,,0.00,WeatherCatV1.15B25,2013-04-19 02:20:00,
2013-04-18 22:23:00,74.1,58.8,29.67,SSE,149,6.0,7.0,59,0.00,,,0.00,WeatherCatV1.15B25,2013-04-19 02:23:00,
2013-04-18 22:25:00,74.2,58.9,29.67,SSE,164,5.0,12.0,59,0.00,,,0.00,WeatherCatV1.15B25,2013-04-19 02:25:00,
2013-04-18 22:28:00,74.7,58.4,29.67,South,191,6.0,11.0,57,0.00,,,0.00,WeatherCatV1.15B25,2013-04-19 02:28:00,
2013-04-18 22:30:00,74.7,58.4,29.67,South,172,6.0,7.0,57,0.00,,,0.00,WeatherCatV1.15B25,2013-04-19 02:30:00,
2013-04-18 22:33:00,75.0,58.2,29.67,SW,219,8.0,14.0,56,0.00,,,0.00,WeatherCatV1.15B25,2013-04-19 02:33:00,
2013-04-18 22:35:00,75.0,58.2,29.67,South,175,7.0,9.0,56,0.00,,,0.00,WeatherCatV1.15B25,2013-04-19 02:35:00,
2013-04-18 22:38:00,75.1,58.3,29.67,South,184,6.0,10.0,56,0.00,,,0.00,WeatherCatV1.15B25,2013-04-19 02:38:00,
2013-04-18 22:40:00,75.1,58.3,29.67,South,179,6.0,11.0,56,0.00,,,0.00,WeatherCatV1.15B25,2013-04-19 02:40:00,
2013-04-18 22:43:00,75.1,58.3,29.67,SE,141,3.0,10.0,56,0.00,,,0.00,WeatherCatV1.15B25,2013-04-19 02:43:00,
2013-04-18 22:45:00,75.1,58.3,29.67,South,172,6.0,9.0,56,0.00,,,0.00,WeatherCatV1.15B25,2013-04-19 02:45:00,
2013-04-18 22:48:00,75.1,57.8,29.67,SW,215,11.0,12.0,55,0.00,,,0.00,WeatherCatV1.15B25,2013-04-19 02:48:00,
2013-04-18 22:50:00,75.1,58.3,29.67,SSE,163,6.0,18.0,56,0.00,,,0.00,WeatherCatV1.15B25,2013-04-19 02:50:00,
2013-04-18 22:53:00,75.1,58.3,29.67,South,176,8.0,8.0,56,0.00,,,0.00,WeatherCatV1.15B25,2013-04-19 02:53:00,
2013-04-18 22:55:00,75.1,58.3,29.67,South,175,6.0,8.0,56,0.00,,,0.00,WeatherCatV1.15B25,2013-04-19 02:55:00,
2013-04-18 22:58:00,74.9,58.1,29.67,South,184,5.0,10.0,56,0.00,,,0.00,WeatherCatV1.15B25,2013-04-19 02:58:00,
2013-04-18 23:00:00,74.8,58.0,29.67,South,172,6.0,10.0,56,0.00,,,0.00,WeatherCatV1.15B25,2013-04-19 03:00:00,
2013-04-18 23:03:00,74.7,57.9,29.67,South,180,5.0,10.0,56,0.00,,,0.00,WeatherCatV1.15B25,2013-04-19 03:03:00,
2013-04-18 23:05:00,74.7,57.9,29.67,South,174,5.0,9.0,56,0.00,,,0.00,WeatherCatV1.15B25,2013-04-19 03:05:00,
2013-04-18 23:08:00,74.6,57.8,29.67,South,173,3.0,7.0,56,0.00,,,0.00,WeatherCatV1.15B25,2013-04-19 03:08:00,
2013-04-18 23:10:00,74.5,57.8,29.67,South,171,5.0,7.0,56,0.00,,,0.00,WeatherCatV1.15B25,2013-04-19 03:10:00,
2013-04-18 23:13:00,74.5,57.8,29.67,SSE,162,4.0,9.0,56,0.00,,,0.00,WeatherCatV1.15B25,2013-04-19 03:13:00,
2013-04-18 23:15:00,74.4,57.7,29.67,South,174,6.0,8.0,56,0.00,,,0.00,WeatherCatV1.15B25,2013-04-19 03:15:00,
2013-04-18 23:18:00,74.4,57.7,29.67,SSE,156,4.0,12.0,56,0.00,,,0.00,WeatherCatV1.15B25,2013-04-19 03:18:00,
2013-04-18 23:20:00,74.4,57.7,29.67,South,182,6.0,7.0,56,0.00,,,0.00,WeatherCatV1.15B25,2013-04-19 03:20:00,
2013-04-18 23:23:00,74.3,57.6,29.67,SW,228,6.0,7.0,56,0.00,,,0.00,WeatherCatV1.15B25,2013-04-19 03:23:00,
2013-04-18 23:25:00,74.2,57.5,29.67,South,177,6.0,13.0,56,0.00,,,0.00,WeatherCatV1.15B25,2013-04-19 03:25:00,
2013-04-18 23:28:00,74.1,57.4,29.67,South,179,7.0,13.0,56,0.00,,,0.00,WeatherCatV1.15B25,2013-04-19 03:28:00,
2013-04-18 23:30:00,74.1,57.4,29.67,South,180,6.0,10.0,56,0.00,,,0.00,WeatherCatV1.15B25,2013-04-19 03:30:00,
2013-04-18 23:33:00,73.9,57.7,29.67,SW,217,10.0,11.0,57,0.00,,,0.00,WeatherCatV1.15B25,2013-04-19 03:33:00,
2013-04-18 23:35:00,73.9,57.2,29.67,South,180,6.0,13.0,56,0.00,,,0.00,WeatherCatV1.15B25,2013-04-19 03:35:00,
2013-04-18 23:38:00,73.8,57.1,29.67,SSW,197,3.0,5.0,56,0.00,,,0.00,WeatherCatV1.15B25,2013-04-19 03:38:00,
2013-04-18 23:40:00,73.7,57.0,29.67,South,176,5.0,5.0,56,0.00,,,0.00,WeatherCatV1.15B25,2013-04-19 03:40:00,
2013-04-18 23:43:00,73.6,57.4,29.67,SSE,159,4.0,9.0,57,0.00,,,0.00,WeatherCatV1.15B25,2013-04-19 03:43:00,
2013-04-18 23:45:00,73.6,57.4,29.67,South,172,5.0,9.0,57,0.00,,,0.00,WeatherCatV1.15B25,2013-04-19 03:45:00,
2013-04-18 23:48:00,73.5,57.3,29.67,South,169,6.0,8.0,57,0.00,,,0.00,WeatherCatV1.15B25,2013-04-19 03:48:00,
2013-04-18 23:50:00,73.5,57.3,29.67,South,170,5.0,9.0,57,0.00,,,0.00,WeatherCatV1.15B25,2013-04-19 03:50:00,
2013-04-18 23:53:00,73.6,57.4,29.67,SSE,148,2.0,6.0,57,0.00,,,0.00,WeatherCatV1.15B25,2013-04-19 03:53:00,
2013-04-18 23:55:00,73.6,56.9,29.67,SSW,192,6.0,12.0,56,0.00,,,0.00,WeatherCatV1.15B25,2013-04-19 03:55:00,
2013-04-18 23:58:00,73.5,56.8,29.67,WNW,283,0.0,5.0,56,0.00,,,0.00,WeatherCatV1.15B25,2013-04-19 03:58:00,